Aeroporto :
LOGIN :

Iscrizione | Disclaimer

   EN    FR    IT 

 










Sommario :    VFR   VFR Marginale   IFR   IFR Intensivo   IFR Molto Intensivo
Visibilità : 
Base nubi : 
>= 8 km
>= 3000ft
5 / 8 km
1000 / 3000 ft
1500m / 5 km
500 / 1000 ft
800 / 1500m
200 / 500 ft
< 800m
< 200 ft
Simboli :   Temporali  Nebbia  Neve Forte  Precipitazioni Forti  Vento > 20 kt
SIGMETs :   Varie  Temporali  Ghiacco  Turbolenza  Onda orograficha  Ceneri Vulcaniche






- Altitudine del aeroporto : 7 ft
- Codice IATA : POW


LJPZ - Portoroz

ULTIMO METAR :
  • 220530Z 13008KT 9999 FEW042 07/06 Q1014

METARs OBSOLETI :
  • 220500Z 12007KT 9999 FEW035 SCT050 07/06 Q1014
  • 220430Z AUTO 12005KT 9999 BKN036/// 07/06 Q1014
  • 220400Z AUTO 13006KT 9999 BKN035/// 07/07 Q1014
  • 220330Z AUTO 12007KT 9999 SCT034/// 07/07 Q1014
  • 220300Z AUTO 12004KT 9999 NSC 07/07 Q1013

TAF TAF LJPZ
Valido dal 22 a 06 ore il 22 a 15 ore UTC


220500Z 2206/2215 12005KT 9999 FEW030 BKN090
TEMPO 2206/2215 BKN036
PROB30
TEMPO 2206/2215 16008KT SHRA FEW010 BKN035TCU



MetMap, La meteo Aeronautica in un colpo d'occhio ! - Copyright ORBIFLY Dicembre 2007 - Disclaimer

ORBIFLY MET'MAP TEAM :

Programmazione e sviluppo : Alexandra Zaïnal
Concezione e sviluppo : Baudouin d'Aumeries
Co-Programmazione e sviluppo : Marc-Olivier Méhu
Supporto tecnico e logistico : Manuel Goepfert
Aiuto per la traduzione : Arnaldo La Scala

Contatto : metmap@orbifly.com




FONTI E CREDITI :

   NOAA